Time;durP1;ratioP1;P1;durP2;ratioP2;P2;SDS_P1;SDS_P2;PMS_P1;PMS_P2;Temp;Humidity;BMP_temperature;BMP_pressure;BME280_temperature;BME280_humidity;BME280_pressure;Samples;Min_cycle;Max_cycle;Signal;HPM_P1;HPM_P2
2022/04/06 00:00:24;;;;;;;24.85;8.32;;;;;;;8.74;89.29;100434.31;5105297;28;20035;-56
2022/04/06 00:02:50;;;;;;;28.17;8.55;;;;;;;8.78;89.10;100440.09;5105440;28;20384;-56
2022/04/06 00:05:16;;;;;;;28.50;8.32;;;;;;;8.81;89.04;100441.59;5092348;28;20116;-56
2022/04/06 00:07:42;;;;;;;21.88;7.75;;;;;;;8.79;88.87;100425.88;5103479;28;20170;-57
2022/04/06 00:10:09;;;;;;;28.95;8.02;;;;;;;8.74;89.34;100429.00;5110850;28;20047;-57
2022/04/06 00:12:36;;;;;;;23.98;8.02;;;;;;;8.79;89.23;100419.78;5109719;28;20042;-57
2022/04/06 00:15:04;;;;;;;25.33;8.50;;;;;;;8.67;89.81;100414.78;5112066;28;20446;-57
2022/04/06 00:17:29;;;;;;;28.50;8.60;;;;;;;8.68;89.57;100415.63;5106264;28;20035;-56
2022/04/06 00:19:54;;;;;;;24.60;8.18;;;;;;;8.75;88.71;100411.34;5104523;28;20042;-56
2022/04/06 00:22:20;;;;;;;23.02;8.10;;;;;;;8.67;89.14;100414.78;5110357;28;20223;-57
2022/04/06 00:24:47;;;;;;;26.70;8.20;;;;;;;8.64;89.78;100414.28;5111137;28;20114;-57
2022/04/06 00:27:12;;;;;;;25.17;7.90;;;;;;;8.67;89.35;100416.59;5102381;28;20040;-57
2022/04/06 00:29:38;;;;;;;23.98;7.60;;;;;;;8.69;89.31;100415.44;5103408;28;20029;-56
2022/04/06 00:32:03;;;;;;;23.45;8.15;;;;;;;8.66;89.51;100407.84;5108571;28;20458;-56
2022/04/06 00:37:12;;;;;;;25.02;7.47;;;;;;;8.65;89.43;100414.13;5103079;28;20038;-56
2022/04/06 00:39:38;;;;;;;24.05;7.68;;;;;;;8.62;89.35;100411.78;5104298;28;20377;-56
2022/04/06 00:42:04;;;;;;;24.80;7.57;;;;;;;8.59;89.63;100412.13;5110680;28;20043;-56
2022/04/06 00:44:34;;;;;;;27.85;7.78;;;;;;;8.62;89.46;100411.78;5109015;28;20042;-56
2022/04/06 00:47:00;;;;;;;22.38;7.55;;;;;;;8.68;88.86;100408.50;5109346;28;20035;-55
2022/04/06 00:49:25;;;;;;;23.70;7.25;;;;;;;8.61;88.93;100399.56;5103770;28;20080;-56
2022/04/06 00:51:50;;;;;;;20.70;6.95;;;;;;;8.61;89.19;100403.06;5097953;28;20428;-55
2022/04/06 00:54:19;;;;;;;25.13;7.63;;;;;;;8.60;89.04;100397.91;5106890;28;20094;-56
2022/04/06 00:56:46;;;;;;;24.67;7.00;;;;;;;8.54;89.65;100399.38;5111052;28;20055;-56
2022/04/06 00:59:12;;;;;;;29.42;7.53;;;;;;;8.59;89.39;100396.25;5110266;28;20077;-56
2022/04/06 01:01:38;;;;;;;24.85;7.03;;;;;;;8.61;88.92;100399.56;5101402;28;20028;-56
2022/04/06 01:04:03;;;;;;;25.38;7.15;;;;;;;8.57;89.06;100399.06;5109627;28;20035;-56
2022/04/06 01:06:29;;;;;;;24.17;7.00;;;;;;;8.62;88.40;100385.34;5104421;28;20534;-56
2022/04/06 01:08:55;;;;;;;24.90;6.80;;;;;;;8.60;88.82;100393.44;5103783;28;20040;-56
2022/04/06 01:11:20;;;;;;;26.77;6.82;;;;;;;8.57;88.34;100382.38;5107595;28;20040;-56
2022/04/06 01:13:47;;;;;;;21.85;6.88;;;;;;;8.52;89.24;100380.22;5091714;28;20086;-56
2022/04/06 01:16:12;;;;;;;22.02;6.57;;;;;;;8.57;88.35;100388.50;5107698;28;20038;-56
2022/04/06 01:18:39;;;;;;;24.42;6.55;;;;;;;8.53;88.86;100375.75;5106350;28;20035;-56
2022/04/06 01:21:05;;;;;;;28.27;6.70;;;;;;;8.55;88.25;100379.06;5099778;28;20123;-56
2022/04/06 01:23:30;;;;;;;23.50;6.63;;;;;;;8.58;88.16;100369.00;5108079;28;20111;-55
2022/04/06 01:25:55;;;;;;;19.98;6.15;;;;;;;8.51;88.91;100372.41;5107469;28;20447;-55
2022/04/06 01:28:20;;;;;;;21.55;6.22;;;;;;;8.50;88.62;100381.31;5101869;28;20032;-56
2022/04/06 01:30:46;;;;;;;26.90;6.45;;;;;;;8.51;88.59;100372.41;5102275;28;20085;-55
2022/04/06 01:33:11;;;;;;;22.73;5.93;;;;;;;8.55;87.54;100369.31;5097161;28;20034;-56
2022/04/06 01:35:38;;;;;;;22.45;6.30;;;;;;;8.45;88.53;100379.97;5087352;28;20036;-56
2022/04/06 01:38:06;;;;;;;19.88;6.28;;;;;;;8.45;88.79;100377.31;5106956;28;20469;-56
2022/04/06 01:40:33;;;;;;;21.00;6.10;;;;;;;8.48;88.49;100373.53;5104318;28;20035;-56
2022/04/06 01:42:58;;;;;;;26.58;6.10;;;;;;;8.43;88.25;100365.25;5102590;28;20081;-55
2022/04/06 01:45:23;;;;;;;21.75;6.20;;;;;;;8.53;87.62;100366.00;5114831;28;20083;-56
2022/04/06 01:47:49;;;;;;;21.85;5.75;;;;;;;8.48;87.96;100371.75;5111597;28;20035;-56
2022/04/06 01:52:58;;;;;;;20.77;5.65;;;;;;;8.41;88.35;100367.25;5097920;28;20075;-56
2022/04/06 01:55:24;;;;;;;18.35;5.60;;;;;;;8.44;88.37;100356.38;5113047;28;20055;-56
2022/04/06 01:57:49;;;;;;;21.60;5.65;;;;;;;8.46;87.86;100360.50;5101910;28;20027;-56
2022/04/06 02:00:17;;;;;;;19.40;5.47;;;;;;;8.43;87.56;100360.81;5107630;28;20043;-56
2022/04/06 02:02:52;;;;;;;18.45;5.15;;;;;;;8.57;87.58;100355.94;5110784;28;20027;-56
2022/04/06 02:05:18;;;;;;;18.42;5.35;;;;;;;8.55;85.78;100363.22;5111570;28;20036;-56
2022/04/06 02:07:46;;;;;;;18.23;5.10;;;;;;;8.48;87.05;100358.53;5109780;28;20481;-57
2022/04/06 02:10:12;;;;;;;17.75;4.85;;;;;;;8.39;86.74;100354.19;5110754;28;20093;-56
2022/04/06 02:12:39;;;;;;;19.65;5.50;;;;;;;8.55;85.41;100350.00;5102522;28;20555;-56
2022/04/06 02:15:05;;;;;;;16.40;5.18;;;;;;;8.41;86.30;100346.09;5107130;28;20111;-56
2022/04/06 02:17:30;;;;;;;23.25;5.38;;;;;;;8.37;86.90;100350.88;5110277;28;20062;-57
2022/04/06 02:19:56;;;;;;;19.33;4.82;;;;;;;8.41;86.30;100348.75;5102320;28;20059;-56
2022/04/06 02:22:21;;;;;;;17.40;4.72;;;;;;;8.33;87.13;100344.25;5099086;28;20043;-56
2022/04/06 02:24:47;;;;;;;18.55;4.63;;;;;;;8.44;85.62;100346.63;5107196;28;20031;-57
2022/04/06 02:27:12;;;;;;;16.30;4.68;;;;;;;8.37;86.11;100340.31;5107668;28;20023;-55
2022/04/06 02:29:39;;;;;;;19.52;4.90;;;;;;;8.41;85.75;100339.03;5105979;28;20027;-55
2022/04/06 02:32:05;;;;;;;18.60;5.03;;;;;;;8.37;86.02;100344.75;5112999;28;20039;-56
2022/04/06 02:34:31;;;;;;;15.98;4.80;;;;;;;8.37;85.99;100339.47;5112138;27;20085;-56
2022/04/06 02:36:56;;;;;;;17.80;4.80;;;;;;;8.38;85.75;100341.97;5106204;27;20059;-56
2022/04/06 02:39:21;;;;;;;14.40;4.53;;;;;;;8.35;85.86;100337.00;5103865;28;20046;-55
2022/04/06 02:41:47;;;;;;;20.02;4.78;;;;;;;8.31;85.84;100339.16;5106543;28;20031;-56
2022/04/06 02:44:12;;;;;;;20.20;4.97;;;;;;;8.32;85.03;100342.59;5111190;28;20398;-56
2022/04/06 02:46:37;;;;;;;17.80;4.80;;;;;;;8.24;85.05;100327.53;5112688;28;20035;-55
2022/04/06 02:49:02;;;;;;;17.70;4.80;;;;;;;8.39;83.96;100327.75;5102954;28;20116;-55
2022/04/06 02:51:28;;;;;;;20.15;4.95;;;;;;;8.29;84.83;100327.09;5100464;28;20044;-56
2022/04/06 02:53:53;;;;;;;20.65;4.60;;;;;;;8.26;84.75;100327.38;5104654;28;20036;-56
2022/04/06 02:56:18;;;;;;;18.65;4.60;;;;;;;8.31;84.62;100325.09;5106512;28;20070;-56
2022/04/06 02:58:44;;;;;;;17.40;4.63;;;;;;;8.27;84.09;100326.41;5105460;28;20046;-56
2022/04/06 03:01:09;;;;;;;21.92;4.85;;;;;;;8.18;84.74;100310.53;5112224;28;20027;-56
2022/04/06 03:03:34;;;;;;;20.48;4.60;;;;;;;8.16;85.11;100317.78;5105098;28;20077;-56
2022/04/06 03:06:02;;;;;;;19.80;4.55;;;;;;;8.30;83.31;100318.16;5093710;28;20046;-56
2022/04/06 03:08:29;;;;;;;15.65;4.35;;;;;;;8.16;84.28;100315.16;5106332;28;20047;-56
2022/04/06 03:10:54;;;;;;;17.05;4.57;;;;;;;8.13;84.69;100307.53;5103916;28;20031;-56
2022/04/06 03:13:19;;;;;;;19.00;4.50;;;;;;;8.17;83.74;100308.03;5109790;28;20093;-56
2022/04/06 03:15:44;;;;;;;20.52;4.65;;;;;;;8.15;83.20;100305.53;5113197;28;20038;-55
2022/04/06 03:18:10;;;;;;;16.02;4.45;;;;;;;8.12;83.58;100305.88;5099886;28;20432;-56
2022/04/06 03:20:35;;;;;;;18.40;4.32;;;;;;;8.10;83.70;100302.56;5107052;28;20019;-56
2022/04/06 03:23:01;;;;;;;15.55;3.85;;;;;;;8.11;82.92;100298.94;5101112;28;20031;-56
2022/04/06 03:25:27;;;;;;;18.05;4.10;;;;;;;8.08;83.67;100301.88;5111726;28;20016;-56
2022/04/06 03:27:52;;;;;;;14.95;3.88;;;;;;;8.11;82.67;100292.81;5111451;28;20154;-54
2022/04/06 03:30:17;;;;;;;15.70;4.10;;;;;;;8.07;83.44;100293.16;5111916;28;20076;-56
2022/04/06 03:32:43;;;;;;;18.50;4.40;;;;;;;8.12;82.59;100283.91;5106429;28;20059;-55
2022/04/06 03:35:10;;;;;;;16.02;4.20;;;;;;;8.10;82.39;100292.00;5104609;28;20036;-56
2022/04/06 03:37:35;;;;;;;17.38;3.83;;;;;;;8.07;82.60;100277.31;5094574;28;20035;-56
2022/04/06 03:40:01;;;;;;;18.65;4.05;;;;;;;8.04;82.63;100276.81;5109485;28;20397;-56
2022/04/06 03:42:27;;;;;;;13.43;3.75;;;;;;;8.03;82.25;100269.84;5110852;28;20043;-57
2022/04/06 03:44:53;;;;;;;16.77;3.80;;;;;;;8.02;82.80;100262.91;5110460;28;20043;-56
2022/04/06 03:47:18;;;;;;;14.68;3.70;;;;;;;8.02;82.23;100269.03;5111607;28;20035;-56
2022/04/06 03:49:43;;;;;;;12.30;3.90;;;;;;;8.00;82.14;100264.91;5093884;28;20034;-56
2022/04/06 03:52:09;;;;;;;16.45;3.85;;;;;;;8.07;81.67;100274.66;5101814;28;20019;-57
2022/04/06 03:54:34;;;;;;;12.32;3.38;;;;;;;8.05;81.95;100265.25;5099695;28;20035;-56
2022/04/06 03:57:00;;;;;;;15.15;4.13;;;;;;;8.02;81.97;100262.91;5109545;28;20054;-56
2022/04/06 03:59:25;;;;;;;14.38;3.83;;;;;;;8.01;81.94;100266.53;5104396;28;20024;-56
2022/04/06 04:01:51;;;;;;;15.68;3.83;;;;;;;7.96;82.03;100255.63;5104308;28;20089;-56
2022/04/06 04:04:16;;;;;;;15.07;4.03;;;;;;;7.98;81.62;100261.59;5107615;27;20035;-57
2022/04/06 04:06:41;;;;;;;13.52;3.25;;;;;;;7.97;81.79;100259.91;5099690;28;20036;-55
2022/04/06 04:09:07;;;;;;;15.95;3.78;;;;;;;7.94;81.77;100264.53;5107920;27;20047;-56
2022/04/06 04:11:33;;;;;;;14.85;3.42;;;;;;;8.03;80.61;100264.56;5106219;28;20048;-56
2022/04/06 04:13:59;;;;;;;15.02;3.80;;;;;;;8.09;80.35;100261.28;5105753;28;20058;-56
2022/04/06 04:16:25;;;;;;;12.73;3.42;;;;;;;8.00;81.22;100272.81;5109884;28;20491;-55
2022/04/06 04:18:50;;;;;;;17.70;4.55;;;;;;;8.06;80.49;100264.25;5108767;28;20032;-56
2022/04/06 04:21:34;;;;;;;15.23;3.50;;;;;;;8.13;80.06;100272.34;5105877;28;20046;-56
2022/04/06 04:24:00;;;;;;;15.60;3.90;;;;;;;8.10;80.78;100262.97;5109371;28;20027;-56
2022/04/06 04:26:25;;;;;;;16.63;3.78;;;;;;;8.03;81.68;100260.13;5098709;28;20154;-56
2022/04/06 04:28:51;;;;;;;17.25;4.07;;;;;;;8.06;81.89;100253.69;5103664;28;20153;-56
2022/04/06 04:31:17;;;;;;;14.55;4.28;;;;;;;8.03;82.60;100259.28;5102607;28;20501;-56
2022/04/06 04:33:42;;;;;;;15.88;4.38;;;;;;;8.02;83.17;100252.34;5103658;28;20043;-56
2022/04/06 04:36:07;;;;;;;20.40;4.65;;;;;;;8.06;83.11;100257.16;5098557;28;20027;-56
2022/04/06 04:38:33;;;;;;;24.73;5.00;;;;;;;8.10;83.18;100251.56;5106699;28;20110;-54
2022/04/06 04:40:58;;;;;;;22.15;5.40;;;;;;;8.02;84.23;100255.00;5110190;28;20027;-56
2022/04/06 04:43:25;;;;;;;20.65;5.50;;;;;;;8.04;83.89;100255.69;5099368;28;20028;-55
2022/04/06 04:45:50;;;;;;;19.42;5.07;;;;;;;8.19;82.95;100248.78;5107467;28;20031;-58
2022/04/06 04:48:15;;;;;;;21.00;5.75;;;;;;;8.11;83.54;100235.56;5101350;28;20102;-56
2022/04/06 04:50:40;;;;;;;18.25;5.18;;;;;;;8.06;84.09;100238.66;5100466;28;20036;-56
2022/04/06 04:53:06;;;;;;;24.48;5.90;;;;;;;8.07;84.24;100235.06;5099379;28;20513;-56
2022/04/06 04:55:32;;;;;;;22.42;5.78;;;;;;;8.17;83.57;100240.22;5105102;28;20374;-56
2022/04/06 04:57:58;;;;;;;21.10;5.90;;;;;;;8.12;84.01;100226.66;5107886;28;20050;-56
2022/04/06 05:00:23;;;;;;;22.55;5.93;;;;;;;8.08;84.34;100230.59;5104805;28;20028;-56
2022/04/06 05:02:48;;;;;;;19.58;6.53;;;;;;;8.05;84.29;100225.63;5102365;28;20463;-56
2022/04/06 05:05:14;;;;;;;23.02;6.50;;;;;;;8.08;84.17;100225.31;5101212;28;20058;-58
2022/04/06 05:07:39;;;;;;;21.83;5.53;;;;;;;8.07;83.94;100219.22;5107618;28;20118;-56
2022/04/06 05:10:06;;;;;;;20.83;6.25;;;;;;;8.06;84.70;100228.09;5099956;28;20129;-56
2022/04/06 05:12:32;;;;;;;22.38;6.68;;;;;;;8.04;84.72;100218.72;5102667;28;20040;-56
2022/04/06 05:14:59;;;;;;;20.85;5.90;;;;;;;8.06;84.43;100233.38;5104948;28;20373;-56
2022/04/06 05:17:24;;;;;;;17.55;5.93;;;;;;;8.03;84.57;100223.16;5110691;28;20035;-56
2022/04/06 05:19:50;;;;;;;21.13;6.30;;;;;;;8.09;83.99;100224.31;5101827;28;20039;-57
2022/04/06 05:22:15;;;;;;;20.63;5.82;;;;;;;8.08;84.04;100225.31;5105995;28;20043;-57
2022/04/06 05:24:40;;;;;;;21.80;5.80;;;;;;;8.05;84.41;100221.16;5108175;28;20450;-57
2022/04/06 05:27:05;;;;;;;22.58;5.95;;;;;;;8.08;83.53;100220.03;5106639;28;20039;-58
2022/04/06 05:29:31;;;;;;;15.18;4.97;;;;;;;8.25;82.29;100220.91;5108745;28;20038;-58
2022/04/06 05:31:56;;;;;;;16.85;5.03;;;;;;;8.14;82.94;100218.56;5104473;28;20034;-57
2022/04/06 05:34:21;;;;;;;18.15;5.93;;;;;;;8.10;83.47;100218.06;5107502;28;20114;-58
2022/04/06 05:36:48;;;;;;;19.45;4.85;;;;;;;8.20;82.74;100218.75;5100353;28;20054;-58
2022/04/06 05:39:13;;;;;;;19.80;5.45;;;;;;;8.12;83.26;100216.09;5101751;28;20032;-58
2022/04/06 05:41:38;;;;;;;19.98;5.00;;;;;;;8.15;83.01;100210.47;5106758;28;20027;-58
2022/04/06 05:44:04;;;;;;;23.50;5.28;;;;;;;8.08;83.13;100212.09;5103839;28;20019;-58
2022/04/06 05:46:30;;;;;;;16.95;4.75;;;;;;;8.26;81.76;100216.44;5108040;28;20435;-59
2022/04/06 05:48:55;;;;;;;18.33;4.70;;;;;;;8.12;82.80;100210.81;5108310;28;20034;-59
2022/04/06 05:51:22;;;;;;;18.67;5.03;;;;;;;8.13;82.48;100220.38;5113952;28;20043;-58
2022/04/06 05:53:47;;;;;;;16.48;4.13;;;;;;;8.18;81.73;100209.31;5102662;28;20085;-58
2022/04/06 05:56:12;;;;;;;14.98;4.30;;;;;;;8.16;81.09;100212.16;5102586;28;20024;-58
2022/04/06 05:58:38;;;;;;;12.15;3.90;;;;;;;8.16;81.23;100206.88;5103390;28;20463;-58
2022/04/06 06:01:03;;;;;;;15.55;4.38;;;;;;;8.23;80.08;100206.22;5107656;28;20471;-58
2022/04/06 06:03:28;;;;;;;16.63;4.38;;;;;;;8.14;80.70;100202.72;5111092;28;20038;-58
2022/04/06 06:05:54;;;;;;;16.30;3.85;;;;;;;8.26;79.38;100205.88;5103439;28;20128;-58
2022/04/06 06:08:19;;;;;;;13.88;3.75;;;;;;;8.17;80.41;100208.50;5106368;27;20024;-58
2022/04/06 06:10:44;;;;;;;13.73;3.40;;;;;;;8.23;78.32;100211.50;5105071;28;20366;-58
2022/04/06 06:13:09;;;;;;;14.05;2.78;;;;;;;8.36;77.68;100211.84;5106056;28;20024;-58
2022/04/06 06:15:35;;;;;;;12.60;3.00;;;;;;;8.27;77.53;100224.22;5109525;28;20088;-58
2022/04/06 06:18:00;;;;;;;10.60;2.63;;;;;;;8.44;75.52;100225.06;5108923;28;20642;-59
2022/04/06 06:20:27;;;;;;;10.32;3.05;;;;;;;8.36;75.63;100227.69;5106237;28;20032;-58
2022/04/06 06:22:52;;;;;;;15.05;3.10;;;;;;;8.35;74.91;100226.06;5102139;28;20588;-57
2022/04/06 06:25:17;;;;;;;8.18;2.53;;;;;;;8.34;73.51;100230.50;5105264;28;20028;-57
2022/04/06 06:27:44;;;;;;;11.32;3.05;;;;;;;8.39;73.62;100227.38;5102147;28;20538;-57
2022/04/06 06:30:12;;;;;;;13.38;2.78;;;;;;;8.34;73.63;100217.28;5107298;28;20060;-57
2022/04/06 06:32:38;;;;;;;10.00;2.80;;;;;;;8.38;73.31;100220.44;5106180;28;20106;-57
2022/04/06 06:35:04;;;;;;;7.22;2.40;;;;;;;8.43;72.71;100215.50;5109036;28;20054;-57
2022/04/06 06:37:29;;;;;;;8.15;2.33;;;;;;;8.39;72.41;100227.38;5110347;28;20525;-57
2022/04/06 06:39:54;;;;;;;10.98;2.58;;;;;;;8.37;72.47;100210.03;5100335;28;20073;-57
2022/04/06 06:42:21;;;;;;;10.15;2.63;;;;;;;8.45;71.96;100205.56;5108049;28;20180;-58
2022/04/06 06:44:46;;;;;;;8.65;2.22;;;;;;;8.50;70.27;100205.09;5105992;28;20394;-59
2022/04/06 06:47:12;;;;;;;11.45;2.30;;;;;;;8.42;71.10;100205.91;5101228;28;20081;-60
2022/04/06 06:49:38;;;;;;;13.18;2.50;;;;;;;8.45;71.25;100196.84;5101785;28;20146;-61
2022/04/06 06:52:03;;;;;;;6.90;2.25;;;;;;;8.48;71.15;100199.13;5108069;28;20476;-59
2022/04/06 06:54:29;;;;;;;9.38;2.53;;;;;;;8.54;71.50;100197.72;5108884;28;20034;-60
2022/04/06 06:56:54;;;;;;;12.10;2.70;;;;;;;8.46;71.54;100201.97;5101416;28;20436;-59
2022/04/06 06:59:19;;;;;;;8.93;2.35;;;;;;;8.48;71.66;100199.97;5100177;28;20032;-60
2022/04/06 07:01:45;;;;;;;9.65;2.40;;;;;;;8.51;71.38;100192.69;5107143;28;20041;-59
2022/04/06 07:04:10;;;;;;;12.15;2.50;;;;;;;8.51;71.36;100196.19;5105551;28;20035;-59
2022/04/06 07:06:35;;;;;;;10.43;2.40;;;;;;;8.56;70.72;100195.72;5099716;28;20038;-59
2022/04/06 07:09:01;;;;;;;9.40;2.20;;;;;;;8.57;70.50;100200.00;5074750;28;1019767;-60
2022/04/06 07:11:26;;;;;;;11.38;3.03;;;;;;;8.63;70.55;100187.97;5097378;28;20028;-59
2022/04/06 07:13:51;;;;;;;12.70;2.58;;;;;;;8.68;70.01;100199.69;5111095;28;20366;-58
2022/04/06 07:16:16;;;;;;;9.82;2.40;;;;;;;8.53;71.58;100196.06;5110804;28;20020;-59
2022/04/06 07:18:42;;;;;;;9.95;2.60;;;;;;;8.54;72.31;100192.41;5105050;28;20039;-58
2022/04/06 07:21:08;;;;;;;8.70;2.70;;;;;;;8.46;73.36;100194.03;5105019;28;20028;-60
2022/04/06 07:23:33;;;;;;;10.57;3.10;;;;;;;8.50;74.19;100196.34;5100719;28;20031;-59
2022/04/06 07:25:59;;;;;;;9.35;3.25;;;;;;;8.52;75.07;100189.94;5112734;28;20089;-58
2022/04/06 07:28:24;;;;;;;13.32;3.45;;;;;;;8.46;76.48;100182.63;5108458;28;20024;-59
2022/04/06 07:30:49;;;;;;;11.60;3.65;;;;;;;8.60;75.95;100186.47;5112518;28;20024;-59
2022/04/06 07:33:15;;;;;;;14.80;3.65;;;;;;;8.53;77.33;100186.28;5110260;28;20047;-59
2022/04/06 07:35:40;;;;;;;12.80;3.90;;;;;;;8.48;77.66;100170.91;5111320;28;20027;-59
2022/04/06 07:38:06;;;;;;;12.18;3.75;;;;;;;8.46;78.21;100170.25;5101852;28;20039;-60
2022/04/06 07:40:32;;;;;;;13.52;4.00;;;;;;;8.50;77.53;100162.00;5100549;28;20024;-60
2022/04/06 07:42:57;;;;;;;12.63;4.30;;;;;;;8.47;78.11;100163.97;5110704;28;20035;-58
2022/04/06 07:45:24;;;;;;;13.50;4.10;;;;;;;8.42;79.04;100168.94;5107362;28;20521;-58
2022/04/06 07:47:51;;;;;;;18.17;4.85;;;;;;;8.46;78.46;100164.97;5111304;28;20039;-58
2022/04/06 07:50:18;;;;;;;13.05;4.03;;;;;;;8.46;79.08;100154.41;5098662;28;20035;-56
2022/04/06 07:52:44;;;;;;;15.30;3.85;;;;;;;8.55;78.68;100152.63;5110682;28;20043;-56
2022/04/06 07:55:10;;;;;;;17.05;4.18;;;;;;;8.59;78.28;100147.84;5103828;28;20028;-55
2022/04/06 07:57:37;;;;;;;11.27;3.67;;;;;;;8.68;77.67;100136.25;5108845;28;20084;-56
2022/04/06 08:00:10;;;;;;;15.18;4.20;;;;;;;8.71;78.37;100135.94;5105638;28;20042;-60
2022/04/06 08:02:36;;;;;;;12.55;3.78;;;;;;;8.80;77.42;100135.91;5104627;28;20122;-57
2022/04/06 08:05:04;;;;;;;12.13;4.18;;;;;;;8.79;77.21;100142.19;5105067;28;20122;-57
2022/04/06 08:07:30;;;;;;;13.27;3.97;;;;;;;8.80;77.48;100143.84;5111752;28;20579;-57
2022/04/06 08:09:55;;;;;;;12.45;3.90;;;;;;;8.90;76.53;100146.31;5104729;28;20043;-57
2022/04/06 08:12:20;;;;;;;12.45;3.75;;;;;;;8.79;77.23;100143.00;5110203;28;20040;-57
2022/04/06 08:14:48;;;;;;;13.02;3.85;;;;;;;8.92;76.74;100147.78;5111328;28;20035;-56
2022/04/06 08:17:14;;;;;;;13.13;3.88;;;;;;;8.77;77.52;100133.63;5112511;28;20477;-58
2022/04/06 08:19:40;;;;;;;11.25;3.30;;;;;;;8.87;76.10;100144.81;5106755;28;20036;-57
2022/04/06 08:22:05;;;;;;;12.07;3.50;;;;;;;8.84;76.55;100145.97;5111122;28;20080;-57
2022/04/06 08:24:30;;;;;;;10.73;3.40;;;;;;;8.81;76.69;100140.19;5100785;28;20051;-58
2022/04/06 08:26:55;;;;;;;11.80;3.28;;;;;;;8.84;76.52;100148.63;5110207;28;20466;-56
2022/04/06 08:29:21;;;;;;;10.88;2.95;;;;;;;8.91;76.31;100150.59;5104764;28;20055;-57
2022/04/06 08:31:46;;;;;;;13.85;3.42;;;;;;;8.79;76.72;100147.47;5106269;28;20497;-57
2022/04/06 08:34:11;;;;;;;14.45;3.65;;;;;;;8.73;77.22;100149.78;5106430;28;20024;-57
2022/04/06 08:36:36;;;;;;;15.23;3.70;;;;;;;8.71;77.76;100151.78;5104074;28;20027;-57
2022/04/06 08:39:02;;;;;;;11.48;3.60;;;;;;;8.65;78.31;100136.59;5102317;28;20028;-57
2022/04/06 08:41:29;;;;;;;11.13;3.63;;;;;;;8.72;77.23;100137.56;5110650;28;20085;-57
2022/04/06 08:43:55;;;;;;;12.70;3.60;;;;;;;8.69;77.62;100143.19;5108571;28;20023;-57
2022/04/06 08:46:21;;;;;;;10.32;3.22;;;;;;;8.71;78.38;100141.22;5107815;28;20031;-57
2022/04/06 08:48:48;;;;;;;11.05;3.50;;;;;;;8.72;77.63;100129.66;5108810;28;20590;-58
2022/04/06 08:51:15;;;;;;;13.82;3.35;;;;;;;8.82;77.72;100136.56;5100731;28;20028;-58
2022/04/06 08:53:41;;;;;;;14.77;3.45;;;;;;;8.85;77.36;100131.78;5105202;28;20039;-59
2022/04/06 08:56:07;;;;;;;11.95;3.30;;;;;;;8.88;77.03;100133.25;5098697;28;20039;-56
2022/04/06 08:58:33;;;;;;;9.82;3.55;;;;;;;8.92;76.83;100133.75;5103842;28;20031;-57
2022/04/06 09:00:58;;;;;;;9.68;3.38;;;;;;;8.98;76.74;100135.72;5109341;28;20020;-57
2022/04/06 09:03:24;;;;;;;15.38;3.97;;;;;;;8.86;77.89;100133.44;5106098;28;20466;-57
2022/04/06 09:06:01;;;;;;;12.13;3.70;;;;;;;9.02;77.75;100129.94;5109617;28;20039;-57
2022/04/06 09:08:41;;;;;;;13.50;3.60;;;;;;;9.04;77.52;100147.44;5105820;28;20043;-57
2022/04/06 09:11:22;;;;;;;8.95;3.58;;;;;;;8.95;78.40;100136.88;5110605;28;20031;-57
2022/04/06 09:13:58;;;;;;;13.27;3.70;;;;;;;8.93;78.34;100128.28;5102240;28;20118;-57
2022/04/06 09:16:27;;;;;;;8.50;3.40;;;;;;;9.05;77.99;100141.16;5108791;28;20036;-58
2022/04/06 09:18:52;;;;;;;11.43;3.65;;;;;;;8.99;78.47;100132.91;5098858;28;20041;-57
2022/04/06 09:21:19;;;;;;;10.43;3.42;;;;;;;9.03;78.89;100128.09;5109489;28;20024;-58
2022/04/06 09:23:48;;;;;;;13.73;4.18;;;;;;;8.90;80.50;100133.91;5108111;28;20382;-58
2022/04/06 09:26:16;;;;;;;12.27;3.92;;;;;;;8.96;79.55;100133.25;5106634;28;20166;-57
2022/04/06 09:28:44;;;;;;;11.63;3.83;;;;;;;8.91;79.72;100124.16;5100652;28;20040;-57
2022/04/06 09:31:15;;;;;;;11.07;3.97;;;;;;;8.91;79.93;100130.28;5109462;28;20022;-57
2022/04/06 09:33:41;;;;;;;13.10;3.95;;;;;;;8.98;78.45;100135.72;5103986;28;20023;-57
2022/04/06 09:36:20;;;;;;;14.32;4.07;;;;;;;8.95;79.50;100136.88;5097700;28;20106;-57
2022/04/06 09:38:50;;;;;;;10.80;3.78;;;;;;;8.94;78.78;100105.31;5107104;28;20036;-56
2022/04/06 09:41:18;;;;;;;12.05;3.90;;;;;;;9.04;79.03;100128.94;5107873;28;20045;-57
2022/04/06 09:43:44;;;;;;;13.40;3.83;;;;;;;9.03;78.10;100122.81;5095699;28;20028;-57
2022/04/06 09:49:02;;;;;;;10.60;3.70;;;;;;;9.01;78.93;100130.94;5102230;28;20059;-57
2022/04/06 09:51:27;;;;;;;12.10;3.85;;;;;;;9.12;78.35;100132.38;5101000;28;20471;-57
2022/04/06 09:53:53;;;;;;;13.80;4.00;;;;;;;9.09;79.46;100121.31;5106258;28;20039;-58
2022/04/06 09:56:20;;;;;;;14.23;4.07;;;;;;;9.08;80.52;100119.66;5101087;28;20477;-57
2022/04/06 09:58:47;;;;;;;13.30;4.20;;;;;;;9.16;78.71;100122.28;5104649;28;20413;-57
2022/04/06 10:01:14;;;;;;;14.07;4.20;;;;;;;9.18;79.50;100114.19;5112691;28;20059;-57
2022/04/06 10:03:41;;;;;;;12.43;4.20;;;;;;;9.14;79.36;100121.63;5109318;28;20044;-57
2022/04/06 10:06:06;;;;;;;12.00;3.72;;;;;;;9.14;79.14;100119.00;5105294;28;20023;-58
2022/04/06 10:08:32;;;;;;;9.45;3.80;;;;;;;9.12;80.61;100115.66;5100815;28;20362;-57
2022/04/06 10:10:59;;;;;;;11.70;3.42;;;;;;;9.22;80.29;100115.50;5108012;28;20032;-58
2022/04/06 10:13:25;;;;;;;11.05;3.40;;;;;;;9.21;80.37;100104.09;5110817;28;20369;-57
2022/04/06 10:15:50;;;;;;;11.85;3.78;;;;;;;9.11;81.40;100108.75;5107722;28;20055;-58
2022/04/06 10:18:17;;;;;;;11.82;3.70;;;;;;;9.16;80.36;100106.41;5110408;28;20036;-58
2022/04/06 10:21:06;;;;;;;12.32;3.70;;;;;;;9.31;80.24;100098.59;5109116;28;20031;-58
2022/04/06 10:23:43;;;;;;;14.52;3.67;;;;;;;9.11;80.46;100106.09;5095239;28;20063;-57
2022/04/06 10:26:22;;;;;;;16.45;3.88;;;;;;;9.20;79.66;100102.44;5112265;28;20039;-57
2022/04/06 10:28:49;;;;;;;11.75;3.83;;;;;;;9.23;79.21;100106.56;5108701;28;20494;-57
2022/04/06 10:31:15;;;;;;;22.25;4.63;;;;;;;9.20;79.05;100107.72;5107841;28;20032;-58
2022/04/06 10:33:40;;;;;;;12.38;4.32;;;;;;;9.13;79.08;100094.34;5108972;28;20031;-59
2022/04/06 10:36:23;;;;;;;13.40;3.95;;;;;;;9.21;79.50;100097.97;5106733;28;20055;-59
2022/04/06 10:39:04;;;;;;;12.95;3.60;;;;;;;9.19;79.82;100098.16;5100551;28;20444;-58
2022/04/06 10:41:29;;;;;;;14.88;4.30;;;;;;;9.13;79.60;100096.19;5103753;28;20102;-58
2022/04/06 10:43:55;;;;;;;15.25;4.28;;;;;;;9.05;81.11;100098.84;5099354;28;20118;-58
2022/04/06 10:46:40;;;;;;;8.38;3.97;;;;;;;9.19;80.39;100094.66;5102704;28;20132;-57
2022/04/06 10:49:05;;;;;;;13.45;4.50;;;;;;;9.06;82.28;100089.91;5104172;28;20113;-58
2022/04/06 10:51:35;;;;;;;7.95;3.80;;;;;;;9.16;79.86;100090.53;5112198;28;20032;-57
2022/04/06 10:54:12;;;;;;;14.32;3.80;;;;;;;9.18;80.85;100088.53;5106762;28;20038;-57
2022/04/06 10:56:49;;;;;;;10.52;3.50;;;;;;;9.20;80.06;100086.56;5109993;28;20028;-57
2022/04/06 10:59:16;;;;;;;9.88;3.00;;;;;;;9.16;79.50;100079.97;5096736;28;20039;-57
2022/04/06 11:01:45;;;;;;;9.65;3.30;;;;;;;9.16;79.67;100074.66;5100283;28;20103;-57
2022/04/06 11:04:22;;;;;;;9.82;3.35;;;;;;;9.38;79.26;100082.88;5109606;28;20359;-57
2022/04/06 11:06:55;;;;;;;11.10;3.50;;;;;;;9.29;79.21;100074.13;5100620;28;20095;-58
2022/04/06 11:12:29;;;;;;;7.43;3.60;;;;;;;9.22;80.51;100076.63;5106039;28;20055;-57
2022/04/06 11:15:17;;;;;;;12.93;3.83;;;;;;;9.19;80.08;100069.06;5106661;27;20032;-57
2022/04/06 11:17:44;;;;;;;12.57;3.85;;;;;;;9.25;79.87;100067.53;5108992;28;20032;-57
2022/04/06 11:20:20;;;;;;;11.82;3.80;;;;;;;9.32;79.75;100057.09;5107701;28;20028;-57
2022/04/06 11:22:53;;;;;;;9.20;3.85;;;;;;;9.31;80.15;100068.69;5110122;28;20436;-57
2022/04/06 11:25:21;;;;;;;10.30;3.75;;;;;;;9.36;79.43;100055.72;5111582;28;20027;-57
2022/04/06 11:27:47;;;;;;;9.10;3.60;;;;;;;9.46;77.50;100055.50;5108205;27;20059;-58
2022/04/06 11:30:17;;;;;;;16.33;4.30;;;;;;;9.42;78.13;100047.09;5109164;28;20526;-58
2022/04/06 11:32:55;;;;;;;9.85;3.90;;;;;;;9.45;79.02;100051.22;5102760;28;20028;-59
2022/04/06 11:35:26;;;;;;;14.32;3.65;;;;;;;9.47;78.23;100055.34;5107256;28;20533;-57